createdAt,value
2022-12-23T00:01:53.774Z,65.50
2022-12-23T00:04:20.633Z,67.70
2022-12-23T00:06:47.488Z,62.00
2022-12-23T00:09:14.331Z,65.13
2022-12-23T00:12:00.993Z,62.97
2022-12-23T00:14:46.438Z,64.10
2022-12-23T00:17:23.746Z,62.90
2022-12-23T00:19:50.570Z,63.72
2022-12-23T00:22:17.222Z,72.03
2022-12-23T00:24:44.023Z,68.47
2022-12-23T00:27:11.026Z,72.75
2022-12-23T00:29:37.740Z,70.95
2022-12-23T00:32:04.789Z,73.65
2022-12-23T00:34:31.572Z,65.53
2022-12-23T00:36:58.228Z,65.75
2022-12-23T00:39:43.322Z,73.10
2022-12-23T00:42:28.752Z,67.10
2022-12-23T00:45:16.051Z,76.78
2022-12-23T00:48:05.913Z,71.70
2022-12-23T00:50:35.652Z,67.70
2022-12-23T00:53:02.627Z,75.47
2022-12-23T00:55:30.242Z,72.45
2022-12-23T00:57:57.126Z,72.93
2022-12-23T01:00:44.511Z,68.80
2022-12-23T01:03:31.972Z,68.90
2022-12-23T01:06:00.135Z,64.72
2022-12-23T01:08:27.586Z,71.32
2022-12-23T01:10:54.698Z,75.82
2022-12-23T01:13:22.002Z,71.07
2022-12-23T01:15:48.775Z,72.88
2022-12-23T01:18:15.537Z,70.68
2022-12-23T01:20:42.302Z,68.18
2022-12-23T01:23:09.086Z,69.97
2022-12-23T01:25:35.788Z,71.28
2022-12-23T01:28:02.664Z,68.93
2022-12-23T01:30:29.382Z,73.15
2022-12-23T01:32:56.289Z,68.18
2022-12-23T01:35:23.057Z,69.25
2022-12-23T01:37:49.752Z,72.30
2022-12-23T01:40:16.657Z,77.38
2022-12-23T01:42:43.472Z,69.70
2022-12-23T01:45:18.219Z,78.70
2022-12-23T01:48:09.980Z,74.80
2022-12-23T01:50:53.700Z,72.03
2022-12-23T01:53:31.449Z,68.32
2022-12-23T01:56:20.314Z,66.55
2022-12-23T01:58:51.641Z,74.43
2022-12-23T02:01:37.359Z,78.72
2022-12-23T02:04:13.845Z,69.63
2022-12-23T02:07:00.265Z,65.88
2022-12-23T02:09:32.878Z,65.72
2022-12-23T02:12:05.772Z,65.50
2022-12-23T02:15:08.003Z,69.22
2022-12-23T02:17:52.675Z,68.45
2022-12-23T02:20:46.906Z,70.60
2022-12-23T02:23:51.617Z,66.97
2022-12-23T02:26:40.238Z,69.18
2022-12-23T02:29:25.119Z,63.00
2022-12-23T02:32:21.336Z,68.93
2022-12-23T02:34:53.766Z,66.30
2022-12-23T02:37:24.573Z,69.40
2022-12-23T02:40:15.784Z,70.30
2022-12-23T02:42:50.710Z,69.97
2022-12-23T02:45:22.298Z,69.15
2022-12-23T02:47:57.762Z,71.00
2022-12-23T02:50:29.819Z,68.07
2022-12-23T02:53:01.509Z,73.93
2022-12-23T02:55:35.211Z,71.13
2022-12-23T02:58:08.244Z,76.47
2022-12-23T03:00:37.298Z,70.93
2022-12-23T03:03:04.211Z,68.70
2022-12-23T03:05:39.700Z,72.43
2022-12-23T03:08:11.082Z,72.53
2022-12-23T03:11:07.543Z,73.00
2022-12-23T03:16:24.380Z,79.90
2022-12-23T03:19:26.775Z,75.75
2022-12-23T03:22:09.244Z,76.07
2022-12-23T03:25:03.758Z,74.55
2022-12-23T03:27:41.096Z,79.50
2022-12-23T03:30:12.963Z,82.40
2022-12-23T03:32:47.290Z,74.80
2022-12-23T03:35:19.449Z,82.10
2022-12-23T03:37:49.561Z,82.60
2022-12-23T03:40:28.079Z,85.18
2022-12-23T03:43:11.809Z,74.78
2022-12-23T03:45:47.617Z,79.82
2022-12-23T03:48:55.619Z,78.40
2022-12-23T03:51:33.209Z,80.80
2022-12-23T03:54:05.334Z,82.55
2022-12-23T03:56:36.278Z,79.75
2022-12-23T03:59:13.311Z,86.65
2022-12-23T04:01:53.639Z,77.05
2022-12-23T04:04:42.267Z,79.25
2022-12-23T04:07:22.537Z,89.18
2022-12-23T04:09:54.285Z,79.85
2022-12-23T04:12:24.437Z,80.45
2022-12-23T04:14:51.675Z,75.95
2022-12-23T04:17:19.212Z,80.40
2022-12-23T04:19:47.083Z,80.20
2022-12-23T04:22:15.397Z,86.40
2022-12-23T04:24:43.041Z,88.55
2022-12-23T04:27:13.695Z,79.40
2022-12-23T04:29:40.526Z,78.55
2022-12-23T04:32:08.062Z,93.38
2022-12-23T04:34:35.549Z,91.05
2022-12-23T04:37:02.601Z,84.20
2022-12-23T04:39:29.416Z,80.90
2022-12-23T04:41:56.141Z,90.47
2022-12-23T04:44:22.937Z,80.55
2022-12-23T04:46:49.777Z,91.97
2022-12-23T04:49:16.456Z,89.68
2022-12-23T04:51:43.205Z,90.95
2022-12-23T04:54:10.101Z,92.65
2022-12-23T04:56:36.813Z,83.40
2022-12-23T04:59:04.419Z,93.10
2022-12-23T05:01:31.633Z,88.40
2022-12-23T05:03:58.425Z,86.57
2022-12-23T05:06:25.184Z,89.55
2022-12-23T05:08:51.988Z,87.13
2022-12-23T05:11:18.812Z,86.70
2022-12-23T05:13:45.648Z,88.30
2022-12-23T05:16:12.691Z,87.43
2022-12-23T05:18:39.476Z,93.90
2022-12-23T05:21:06.189Z,91.00
2022-12-23T05:23:32.991Z,89.80
2022-12-23T05:25:59.887Z,91.07
2022-12-23T05:28:26.564Z,82.32
2022-12-23T05:31:01.249Z,85.70
2022-12-23T05:33:28.383Z,81.40
2022-12-23T05:35:55.519Z,84.93
2022-12-23T05:38:22.513Z,90.55
2022-12-23T05:40:49.815Z,89.07
2022-12-23T05:43:16.534Z,91.90
2022-12-23T05:45:43.888Z,88.28
2022-12-23T05:48:10.823Z,86.72
2022-12-23T05:50:38.543Z,89.32
2022-12-23T05:53:06.607Z,87.88
2022-12-23T05:55:33.626Z,80.30
2022-12-23T05:58:00.336Z,88.97
2022-12-23T06:00:27.352Z,91.47
2022-12-23T06:02:54.593Z,93.13
2022-12-23T06:05:21.805Z,85.38
2022-12-23T06:07:48.674Z,97.05
2022-12-23T06:10:15.338Z,93.63
2022-12-23T06:12:42.140Z,96.53
2022-12-23T06:15:09.761Z,94.30
2022-12-23T06:17:36.712Z,91.75
2022-12-23T06:20:04.178Z,94.05
2022-12-23T06:22:31.508Z,87.85
2022-12-23T06:24:58.200Z,93.03
2022-12-23T06:27:25.027Z,93.05
2022-12-23T06:29:51.884Z,90.35
2022-12-23T06:32:18.770Z,90.32
2022-12-23T06:34:46.676Z,101.32
2022-12-23T06:37:13.492Z,102.78
2022-12-23T06:39:40.174Z,90.03
2022-12-23T06:42:06.868Z,97.72
2022-12-23T06:44:33.632Z,100.50
2022-12-23T06:47:00.312Z,104.47
2022-12-23T06:49:27.083Z,95.95
2022-12-23T06:51:53.865Z,92.50
2022-12-23T06:54:20.602Z,94.60
2022-12-23T06:56:47.493Z,88.30
2022-12-23T06:59:14.358Z,89.38
2022-12-23T07:01:41.189Z,93.82
2022-12-23T07:04:07.986Z,97.47
2022-12-23T07:06:34.863Z,93.90
2022-12-23T07:09:01.704Z,100.55
2022-12-23T07:11:28.469Z,97.68
2022-12-23T07:13:55.262Z,90.55
2022-12-23T07:16:21.979Z,99.82
2022-12-23T07:18:48.782Z,97.72
2022-12-23T07:21:24.640Z,98.22
2022-12-23T07:23:55.286Z,110.00
2022-12-23T07:26:22.038Z,95.38
2022-12-23T07:28:49.043Z,95.35
2022-12-23T07:31:16.314Z,96.63
2022-12-23T07:33:43.341Z,96.55
2022-12-23T07:36:10.358Z,106.13
2022-12-23T07:38:37.085Z,102.80
2022-12-23T07:41:04.167Z,104.55
2022-12-23T07:43:31.016Z,108.75
2022-12-23T07:46:00.853Z,97.45
2022-12-23T07:48:28.065Z,99.10
2022-12-23T07:51:00.834Z,106.60
2022-12-23T07:53:27.813Z,103.63
2022-12-23T07:55:56.700Z,105.30
2022-12-23T07:58:23.819Z,108.43
2022-12-23T08:00:50.642Z,110.18
2022-12-23T08:03:17.967Z,104.30
2022-12-23T08:05:44.796Z,113.75
2022-12-23T08:08:11.806Z,106.43
2022-12-23T08:10:44.494Z,102.22
2022-12-23T08:13:14.820Z,104.38
2022-12-23T08:15:41.640Z,102.05
2022-12-23T08:18:08.320Z,105.05
2022-12-23T08:20:35.120Z,94.35
2022-12-23T08:23:02.150Z,108.25
2022-12-23T08:25:28.798Z,100.68
2022-12-23T08:27:55.465Z,102.43
2022-12-23T08:30:22.515Z,103.03
2022-12-23T08:32:49.195Z,105.72
2022-12-23T08:35:15.976Z,103.88
2022-12-23T08:37:42.845Z,103.15
2022-12-23T08:40:09.935Z,100.05
2022-12-23T08:42:36.636Z,106.28
2022-12-23T08:45:03.609Z,106.03
2022-12-23T08:47:30.403Z,109.53
2022-12-23T08:49:57.127Z,113.03
2022-12-23T08:52:24.146Z,114.95
2022-12-23T08:54:50.818Z,112.43
2022-12-23T08:57:17.647Z,113.10
2022-12-23T08:59:44.464Z,112.13
2022-12-23T09:02:12.022Z,109.90
2022-12-23T09:04:39.027Z,102.40
2022-12-23T09:07:06.161Z,113.28
2022-12-23T09:09:32.915Z,100.93
2022-12-23T09:11:59.675Z,99.32
2022-12-23T09:14:26.682Z,97.05
2022-12-23T09:16:53.452Z,95.35
2022-12-23T09:19:20.399Z,98.00
2022-12-23T09:21:47.866Z,97.85
2022-12-23T09:24:14.565Z,95.43
2022-12-23T09:26:41.379Z,104.57
2022-12-23T09:29:08.423Z,100.00
2022-12-23T09:31:37.790Z,99.20
2022-12-23T09:34:06.162Z,95.63
2022-12-23T09:36:33.385Z,88.53
2022-12-23T09:39:00.148Z,97.65
2022-12-23T09:41:49.355Z,95.38
2022-12-23T09:44:32.563Z,91.38
2022-12-23T09:47:03.704Z,104.95
2022-12-23T09:49:30.756Z,92.65
2022-12-23T09:52:02.722Z,89.35
2022-12-23T09:54:34.944Z,91.63
2022-12-23T09:57:26.110Z,87.05
2022-12-23T10:00:08.290Z,88.18
2022-12-23T10:02:58.385Z,98.63
2022-12-23T10:05:50.108Z,82.07
2022-12-23T10:08:29.227Z,89.88
2022-12-23T10:11:20.741Z,83.85
2022-12-23T10:14:01.872Z,81.85
2022-12-23T10:16:38.701Z,83.55
2022-12-23T10:19:32.122Z,78.35
2022-12-23T10:22:15.966Z,72.95
2022-12-23T10:24:45.905Z,78.25
2022-12-23T10:27:23.425Z,77.38
2022-12-23T10:29:50.529Z,79.13
2022-12-23T10:32:17.309Z,79.57
2022-12-23T10:35:11.170Z,77.47
2022-12-23T10:38:02.042Z,76.65
2022-12-23T10:40:34.595Z,78.78
2022-12-23T10:43:39.297Z,79.13
2022-12-23T10:46:36.682Z,79.32
2022-12-23T10:49:32.409Z,77.20
2022-12-23T10:52:22.912Z,74.00
2022-12-23T10:54:49.855Z,75.97
2022-12-23T10:57:18.561Z,74.25
2022-12-23T10:59:45.657Z,75.55
2022-12-23T11:02:12.475Z,82.32
2022-12-23T11:04:45.227Z,74.95
2022-12-23T11:07:43.393Z,83.63
2022-12-23T11:10:13.085Z,82.50
2022-12-23T11:12:43.113Z,80.22
2022-12-23T11:15:26.361Z,82.22
2022-12-23T11:18:11.234Z,77.70
2022-12-23T11:20:40.174Z,77.43
2022-12-23T11:23:27.185Z,78.50
2022-12-23T11:26:09.373Z,74.72
2022-12-23T11:28:39.595Z,76.60
2022-12-23T11:31:11.965Z,74.38
2022-12-23T11:33:45.540Z,75.85
2022-12-23T11:36:25.908Z,70.78
2022-12-23T11:39:07.624Z,76.65
2022-12-23T11:41:38.955Z,72.85
2022-12-23T11:44:10.313Z,65.20
2022-12-23T11:46:37.142Z,65.38
2022-12-23T11:49:28.437Z,59.15
2022-12-23T11:52:11.863Z,55.25
2022-12-23T11:54:39.560Z,49.97
2022-12-23T11:57:15.496Z,46.20
2022-12-23T11:59:45.001Z,45.78
2022-12-23T12:02:27.585Z,47.88
2022-12-23T12:05:08.821Z,41.78
2022-12-23T12:07:35.981Z,44.50
2022-12-23T12:10:04.000Z,46.83
2022-12-23T12:12:30.999Z,51.08
2022-12-23T12:14:59.864Z,49.42
2022-12-23T12:17:47.613Z,51.10
2022-12-23T12:20:24.201Z,45.30
2022-12-23T12:23:11.796Z,48.85
2022-12-23T12:25:44.200Z,52.90
2022-12-23T12:28:19.839Z,53.15
2022-12-23T12:30:56.339Z,58.40
2022-12-23T12:33:38.565Z,58.67
2022-12-23T12:36:05.783Z,57.13
2022-12-23T12:38:36.069Z,55.85
2022-12-23T12:41:07.367Z,59.08
2022-12-23T12:43:39.523Z,58.80
2022-12-23T12:46:31.001Z,59.20
2022-12-23T12:49:21.012Z,72.25
2022-12-23T12:51:57.035Z,65.93
2022-12-23T12:54:37.196Z,71.95
2022-12-23T12:57:04.142Z,69.40
2022-12-23T12:59:36.777Z,71.22
2022-12-23T13:02:41.589Z,71.70
2022-12-23T13:05:36.078Z,70.38
2022-12-23T13:08:33.876Z,76.35
2022-12-23T13:11:10.810Z,73.90
2022-12-23T13:14:18.505Z,75.82
2022-12-23T13:16:53.711Z,73.93
2022-12-23T13:20:09.080Z,77.75
2022-12-23T13:22:37.235Z,74.55
2022-12-23T13:25:29.148Z,77.10
2022-12-23T13:28:26.704Z,72.93
2022-12-23T13:31:19.391Z,81.57
2022-12-23T13:33:58.107Z,81.88
2022-12-23T13:36:44.623Z,73.35
2022-12-23T13:39:42.132Z,83.32
2022-12-23T13:42:16.533Z,83.22
2022-12-23T13:44:43.699Z,80.82
2022-12-23T13:47:30.144Z,81.25
2022-12-23T13:50:02.162Z,87.55
2022-12-23T13:53:06.212Z,92.60
2022-12-23T13:56:13.995Z,81.53
2022-12-23T13:58:41.272Z,79.88
2022-12-23T14:01:08.090Z,88.55
2022-12-23T14:03:37.757Z,83.28
2022-12-23T14:06:24.433Z,83.95
2022-12-23T14:08:52.608Z,95.85
2022-12-23T14:11:29.813Z,83.90
2022-12-23T14:14:07.360Z,78.55
2022-12-23T14:16:58.799Z,93.38
2022-12-23T14:19:47.385Z,84.05
2022-12-23T14:22:31.679Z,87.20
2022-12-23T14:25:15.370Z,89.82
2022-12-23T14:27:51.256Z,93.25
2022-12-23T14:30:45.538Z,83.82
2022-12-23T14:33:15.351Z,85.47
2022-12-23T14:35:42.879Z,81.80
2022-12-23T14:38:15.631Z,80.88
2022-12-23T14:40:42.619Z,80.13
2022-12-23T14:43:27.685Z,88.35
2022-12-23T14:46:06.180Z,83.78
2022-12-23T14:48:36.053Z,88.13
2022-12-23T14:51:40.695Z,82.80
2022-12-23T14:54:15.325Z,84.72
2022-12-23T14:57:00.539Z,93.82
2022-12-23T14:59:58.512Z,90.47
2022-12-23T15:02:35.356Z,88.82
2022-12-23T15:05:02.583Z,90.45
2022-12-23T15:07:33.624Z,91.93
2022-12-23T15:10:06.501Z,88.85
2022-12-23T15:12:35.104Z,90.00
2022-12-23T15:15:29.858Z,95.30
2022-12-23T15:18:10.949Z,91.80
2022-12-23T15:20:38.302Z,86.13
2022-12-23T15:23:16.281Z,90.15
2022-12-23T15:25:46.536Z,96.03
2022-12-23T15:28:41.312Z,87.30
2022-12-23T15:31:25.952Z,87.13
2022-12-23T15:34:03.446Z,84.30
2022-12-23T15:36:36.870Z,89.57
2022-12-23T15:39:09.938Z,77.35
2022-12-23T15:41:44.126Z,77.22
2022-12-23T15:44:15.627Z,79.50
2022-12-23T15:46:42.754Z,82.97
2022-12-23T15:49:11.781Z,77.88
2022-12-23T15:54:35.446Z,82.78
2022-12-23T15:57:04.436Z,81.38
2022-12-23T15:59:38.605Z,79.35
2022-12-23T16:05:42.090Z,88.00
2022-12-23T16:08:21.597Z,89.50
2022-12-23T16:11:15.343Z,83.60
2022-12-23T16:13:58.345Z,85.05
2022-12-23T16:16:34.092Z,92.05
2022-12-23T16:19:00.840Z,85.25
2022-12-23T16:21:34.833Z,84.80
2022-12-23T16:24:07.059Z,81.88
2022-12-23T16:26:42.501Z,86.75
2022-12-23T16:29:11.479Z,77.32
2022-12-23T16:31:42.812Z,81.05
2022-12-23T16:34:13.389Z,73.55
2022-12-23T16:36:40.368Z,79.35
2022-12-23T16:39:07.088Z,73.38
2022-12-23T16:41:35.079Z,70.53
2022-12-23T16:44:02.341Z,68.72
2022-12-23T16:46:34.163Z,69.07
2022-12-23T16:49:04.784Z,71.03
2022-12-23T16:51:34.173Z,69.80
2022-12-23T16:54:03.469Z,72.57
2022-12-23T16:56:36.426Z,65.40
2022-12-23T16:59:04.401Z,67.95
2022-12-23T17:01:41.996Z,79.47
2022-12-23T17:04:09.344Z,64.20
2022-12-23T17:06:36.750Z,69.45
2022-12-23T17:09:05.164Z,65.47
2022-12-23T17:11:39.592Z,67.07
2022-12-23T17:14:13.522Z,68.80
2022-12-23T17:16:42.522Z,64.47
2022-12-23T17:19:09.508Z,67.50
2022-12-23T17:21:37.767Z,65.65
2022-12-23T17:24:09.446Z,69.63
2022-12-23T17:26:36.213Z,64.43
2022-12-23T17:29:04.967Z,64.43
2022-12-23T17:31:34.588Z,68.32
2022-12-23T17:34:02.187Z,67.50
2022-12-23T17:36:29.549Z,62.70
2022-12-23T17:38:56.390Z,68.00
2022-12-23T17:41:26.594Z,70.53
2022-12-23T17:43:53.302Z,67.82
2022-12-23T17:46:20.418Z,67.40
2022-12-23T17:48:47.824Z,60.55
2022-12-23T17:51:17.225Z,65.25
2022-12-23T17:53:45.265Z,63.78
2022-12-23T17:56:13.930Z,68.32
2022-12-23T17:58:41.713Z,63.33
2022-12-23T18:01:21.888Z,66.22
2022-12-23T18:03:48.680Z,65.18
2022-12-23T18:06:18.063Z,71.95
2022-12-23T18:08:45.959Z,60.03
2022-12-23T18:11:21.231Z,63.45
2022-12-23T18:13:50.050Z,61.88
2022-12-23T18:16:16.776Z,65.47
2022-12-23T18:18:46.662Z,71.07
2022-12-23T18:21:26.235Z,63.70
2022-12-23T18:23:56.665Z,64.13
2022-12-23T18:26:24.798Z,63.92
2022-12-23T18:28:54.328Z,59.70
2022-12-23T18:31:25.712Z,60.40
2022-12-23T18:33:53.053Z,59.22
2022-12-23T18:36:25.978Z,64.95
2022-12-23T18:38:53.836Z,63.60
2022-12-23T18:41:21.455Z,62.88
2022-12-23T18:43:48.437Z,63.70
2022-12-23T18:46:15.256Z,63.00
2022-12-23T18:48:42.240Z,61.08
2022-12-23T18:51:17.469Z,61.20
2022-12-23T18:53:45.421Z,64.97
2022-12-23T18:56:24.025Z,65.63
2022-12-23T18:58:50.730Z,57.25
2022-12-23T19:01:18.867Z,61.65
2022-12-23T19:03:46.549Z,66.18
2022-12-23T19:06:14.587Z,65.53
2022-12-23T19:08:42.594Z,63.42
2022-12-23T19:11:15.579Z,62.47
2022-12-23T19:13:42.467Z,61.88
2022-12-23T19:16:16.821Z,62.55
2022-12-23T19:18:44.318Z,64.43
2022-12-23T19:21:11.119Z,62.83
2022-12-23T19:23:39.454Z,67.00
2022-12-23T19:26:06.252Z,59.67
2022-12-23T19:28:33.547Z,69.15
2022-12-23T19:31:00.442Z,70.78
2022-12-23T19:33:27.343Z,66.53
2022-12-23T19:35:54.144Z,68.28
2022-12-23T19:38:21.124Z,63.00
2022-12-23T19:40:56.546Z,68.45
2022-12-23T19:43:23.421Z,68.53
2022-12-23T19:46:01.696Z,64.90
2022-12-23T19:48:29.479Z,71.65
2022-12-23T19:51:01.602Z,67.82
2022-12-23T19:53:29.313Z,64.28
2022-12-23T19:56:07.470Z,67.97
2022-12-23T19:58:40.052Z,68.35
2022-12-23T20:01:21.722Z,65.28
2022-12-23T20:03:49.676Z,67.80
2022-12-23T20:06:30.616Z,72.25
2022-12-23T20:09:00.884Z,67.18
2022-12-23T20:11:30.626Z,69.55
2022-12-23T20:13:58.522Z,70.80
2022-12-23T20:16:26.428Z,77.15
2022-12-23T20:18:53.540Z,78.20
2022-12-23T20:21:20.666Z,76.40
2022-12-23T20:23:47.796Z,70.85
2022-12-23T20:26:16.099Z,73.88
2022-12-23T20:28:42.881Z,74.90
2022-12-23T20:31:23.974Z,73.10
2022-12-23T20:33:52.726Z,73.10
2022-12-23T20:36:21.662Z,71.25
2022-12-23T20:38:49.037Z,76.40
2022-12-23T20:41:21.909Z,77.28
2022-12-23T20:44:02.728Z,78.45
2022-12-23T20:46:35.711Z,76.55
2022-12-23T20:49:02.521Z,65.88
2022-12-23T20:51:29.323Z,72.20
2022-12-23T20:54:00.139Z,74.28
2022-12-23T20:56:29.167Z,69.63
2022-12-23T20:58:59.065Z,71.10
2022-12-23T21:01:32.236Z,73.88
2022-12-23T21:04:00.994Z,74.65
2022-12-23T21:06:29.053Z,76.50
2022-12-23T21:08:58.229Z,78.20
2022-12-23T21:11:26.877Z,75.50
2022-12-23T21:13:53.909Z,78.85
2022-12-23T21:16:21.243Z,70.65
2022-12-23T21:18:52.589Z,73.10
2022-12-23T21:21:26.307Z,75.38
2022-12-23T21:23:57.589Z,75.57
2022-12-23T21:26:27.556Z,67.07
2022-12-23T21:28:56.008Z,71.85
2022-12-23T21:31:23.926Z,74.45
2022-12-23T21:33:51.955Z,72.28
2022-12-23T21:36:21.368Z,75.13
2022-12-23T21:38:49.261Z,72.88
2022-12-23T21:41:22.140Z,78.88
2022-12-23T21:43:49.502Z,76.07
2022-12-23T21:46:20.085Z,74.70
2022-12-23T21:48:47.377Z,76.38
2022-12-23T21:51:15.856Z,77.80
2022-12-23T21:53:44.253Z,80.90
2022-12-23T21:56:13.892Z,79.75
2022-12-23T21:58:40.886Z,74.68
2022-12-23T22:01:19.532Z,69.35
2022-12-23T22:03:48.786Z,70.47
2022-12-23T22:06:22.213Z,74.80
2022-12-23T22:08:50.101Z,84.50
2022-12-23T22:11:25.520Z,77.95
2022-12-23T22:13:52.983Z,76.40
2022-12-23T22:16:22.112Z,76.93
2022-12-23T22:18:50.086Z,75.60
2022-12-23T22:21:19.848Z,79.10
2022-12-23T22:23:47.317Z,76.30
2022-12-23T22:26:23.903Z,78.13
2022-12-23T22:28:51.680Z,71.53
2022-12-23T22:31:20.027Z,77.30
2022-12-23T22:33:47.101Z,77.93
2022-12-23T22:36:15.841Z,73.25
2022-12-23T22:38:43.480Z,75.35
2022-12-23T22:41:10.862Z,72.38
2022-12-23T22:43:37.898Z,77.10
2022-12-23T22:46:05.364Z,76.43
2022-12-23T22:48:32.400Z,75.47
2022-12-23T22:51:09.674Z,81.05
2022-12-23T22:53:37.212Z,77.53
2022-12-23T22:56:05.305Z,81.72
2022-12-23T22:58:33.685Z,75.68
2022-12-23T23:01:00.881Z,79.15
2022-12-23T23:03:28.462Z,88.28
2022-12-23T23:06:07.718Z,81.28
2022-12-23T23:08:34.801Z,83.82
2022-12-23T23:11:03.597Z,83.65
2022-12-23T23:13:33.312Z,80.60
2022-12-23T23:16:01.496Z,90.57
2022-12-23T23:18:29.689Z,91.72
2022-12-23T23:20:56.841Z,92.63
2022-12-23T23:23:23.707Z,86.65
2022-12-23T23:25:50.451Z,91.20
2022-12-23T23:28:17.473Z,85.82
2022-12-23T23:30:44.416Z,93.32
2022-12-23T23:33:11.978Z,87.35
2022-12-23T23:35:39.393Z,94.95
2022-12-23T23:38:06.160Z,84.32
2022-12-23T23:40:32.988Z,86.30
2022-12-23T23:43:00.549Z,94.82
2022-12-23T23:45:27.527Z,82.25
2022-12-23T23:47:55.319Z,86.43
2022-12-23T23:50:22.603Z,86.03
2022-12-23T23:52:49.341Z,86.00
2022-12-23T23:55:16.102Z,84.90
2022-12-23T23:57:42.854Z,79.45
